Terminal Aerodrome Forecast
Issued by NWS

Home | Current Version | Previous Version | Text Only | Print | Product List | Glossary On
Versions: 1 2 3 4 5 6 7 8 9 10 11 12 13
000
FTUS45 KTFX 270500 RRA
TAFCTB
TAF
KCTB 270549Z 2706/2806 28010KT P6SM SCT100 BKN200
     FM271000 26010G20KT P6SM SCT060 BKN100
     FM271800 21011KT P6SM VCSH SCT040 OVC070
     FM280000 VRB06KT P6SM VCSH SCT025 OVC040 PROB30 2802/2806 4SM
      -SN BR BKN020=

USA.gov is the U.S. government's official web portal to all federal, state and local government web resources and services.